createdAt,value
2018-03-16T00:01:41.189Z,46.43
2018-03-16T00:04:07.324Z,33.37
2018-03-16T00:06:33.463Z,40.97
2018-03-16T00:08:59.604Z,47.70
2018-03-16T00:11:25.740Z,44.47
2018-03-16T00:13:51.873Z,45.03
2018-03-16T00:16:18.005Z,52.77
2018-03-16T00:18:44.133Z,35.43
2018-03-16T00:21:11.025Z,50.43
2018-03-16T00:23:37.148Z,48.77
2018-03-16T00:26:03.272Z,47.80
2018-03-16T00:28:36.546Z,49.20
2018-03-16T00:31:02.678Z,49.90
2018-03-16T00:33:28.809Z,52.43
2018-03-16T00:35:54.946Z,49.77
2018-03-16T00:38:21.087Z,48.80
2018-03-16T00:40:47.226Z,49.30
2018-03-16T00:43:13.353Z,49.30
2018-03-16T00:45:39.497Z,47.60
2018-03-16T00:48:05.626Z,47.80
2018-03-16T00:50:31.754Z,47.70
2018-03-16T00:52:57.893Z,39.60
2018-03-16T00:55:24.029Z,47.53
2018-03-16T00:57:50.186Z,49.60
2018-03-16T01:00:16.310Z,49.27
2018-03-16T01:02:42.452Z,48.00
2018-03-16T01:05:08.583Z,48.43
2018-03-16T01:07:34.712Z,46.27
2018-03-16T01:10:00.842Z,46.53
2018-03-16T01:12:26.972Z,49.10
2018-03-16T01:14:53.849Z,47.33
2018-03-16T01:17:19.985Z,47.67
2018-03-16T01:19:46.147Z,47.37
2018-03-16T01:22:12.283Z,40.97
2018-03-16T01:24:38.417Z,48.00
2018-03-16T01:27:04.532Z,45.13
2018-03-16T01:29:30.686Z,39.77
2018-03-16T01:31:56.813Z,46.57
2018-03-16T01:34:22.947Z,47.80
2018-03-16T01:36:49.060Z,39.73
2018-03-16T01:39:15.931Z,37.73
2018-03-16T01:41:42.061Z,42.87
2018-03-16T01:44:08.970Z,47.73
2018-03-16T01:46:35.072Z,47.33
2018-03-16T01:49:01.196Z,47.97
2018-03-16T01:51:28.069Z,46.77
2018-03-16T01:53:54.192Z,49.43
2018-03-16T01:56:21.053Z,49.07
2018-03-16T01:58:47.170Z,50.07
2018-03-16T02:01:13.293Z,44.13
2018-03-16T02:03:39.408Z,46.67
2018-03-16T02:06:05.532Z,48.40
2018-03-16T02:08:31.641Z,46.57
2018-03-16T02:10:58.509Z,48.23
2018-03-16T02:13:24.621Z,44.73
2018-03-16T02:15:51.481Z,41.23
2018-03-16T02:18:18.341Z,50.27
2018-03-16T02:20:45.192Z,49.50
2018-03-16T02:23:12.057Z,48.33
2018-03-16T02:25:38.166Z,49.43
2018-03-16T02:28:04.297Z,48.43
2018-03-16T02:30:30.410Z,48.27
2018-03-16T02:32:56.539Z,49.40
2018-03-16T02:35:22.664Z,50.90
2018-03-16T02:37:48.795Z,45.17
2018-03-16T02:40:14.897Z,50.50
2018-03-16T02:42:41.020Z,51.10
2018-03-16T02:45:07.138Z,45.87
2018-03-16T02:47:33.250Z,49.50
2018-03-16T02:49:59.366Z,50.60
2018-03-16T02:52:26.237Z,47.97
2018-03-16T02:54:52.358Z,47.60
2018-03-16T02:57:19.232Z,50.13
2018-03-16T02:59:45.358Z,48.83
2018-03-16T03:02:12.217Z,49.37
2018-03-16T03:04:39.069Z,44.53
2018-03-16T03:07:05.922Z,41.97
2018-03-16T03:09:32.781Z,49.40
2018-03-16T03:11:59.650Z,51.70
2018-03-16T03:14:25.769Z,42.90
2018-03-16T03:16:52.620Z,44.93
2018-03-16T03:19:19.477Z,50.13
2018-03-16T03:21:45.589Z,49.20
2018-03-16T03:24:11.705Z,53.30
2018-03-16T03:26:37.829Z,51.17
2018-03-16T03:29:03.942Z,51.47
2018-03-16T03:31:30.813Z,51.50
2018-03-16T03:33:56.933Z,51.03
2018-03-16T03:36:23.785Z,50.27
2018-03-16T03:38:50.665Z,48.17
2018-03-16T03:41:16.780Z,53.20
2018-03-16T03:43:43.637Z,48.03
2018-03-16T03:46:10.505Z,52.70
2018-03-16T03:48:36.608Z,51.33
2018-03-16T03:51:02.729Z,51.37
2018-03-16T03:53:28.864Z,51.70
2018-03-16T03:55:54.988Z,51.73
2018-03-16T03:58:21.117Z,54.27
2018-03-16T04:00:47.233Z,52.83
2018-03-16T04:03:13.353Z,51.20
2018-03-16T04:05:40.213Z,52.03
2018-03-16T04:08:06.371Z,53.33
2018-03-16T04:10:33.208Z,49.37
2018-03-16T04:13:00.070Z,54.03
2018-03-16T04:15:26.920Z,52.80
2018-03-16T04:17:53.790Z,54.13
2018-03-16T04:20:19.916Z,50.10
2018-03-16T04:22:46.810Z,53.90
2018-03-16T04:25:12.925Z,52.87
2018-03-16T04:27:39.042Z,52.30
2018-03-16T04:30:05.899Z,54.37
2018-03-16T04:32:32.762Z,52.40
2018-03-16T04:34:59.634Z,49.80
2018-03-16T04:37:25.753Z,53.57
2018-03-16T04:39:52.629Z,54.17
2018-03-16T04:42:18.736Z,54.20
2018-03-16T04:44:45.587Z,51.83
2018-03-16T04:47:11.693Z,56.47
2018-03-16T04:49:37.829Z,54.03
2018-03-16T04:52:03.973Z,54.20
2018-03-16T04:54:30.105Z,55.07
2018-03-16T04:56:56.241Z,54.43
2018-03-16T04:59:22.369Z,52.20
2018-03-16T05:01:48.509Z,52.77
2018-03-16T05:04:14.634Z,50.87
2018-03-16T05:06:40.794Z,51.93
2018-03-16T05:09:06.917Z,54.07
2018-03-16T05:11:33.052Z,56.27
2018-03-16T05:13:59.182Z,51.23
2018-03-16T05:16:25.341Z,53.10
2018-03-16T05:18:51.480Z,40.93
2018-03-16T05:21:17.617Z,51.33
2018-03-16T05:23:43.741Z,56.50
2018-03-16T05:26:09.861Z,54.73
2018-03-16T05:28:36.728Z,52.60
2018-03-16T05:31:02.891Z,53.37
2018-03-16T05:33:29.038Z,51.20
2018-03-16T05:35:55.177Z,53.67
2018-03-16T05:38:21.309Z,50.80
2018-03-16T05:40:47.435Z,52.57
2018-03-16T05:43:13.579Z,53.20
2018-03-16T05:45:39.697Z,51.13
2018-03-16T05:48:05.845Z,49.37
2018-03-16T05:50:31.960Z,50.37
2018-03-16T05:52:58.816Z,49.43
2018-03-16T05:55:25.684Z,48.13
2018-03-16T05:57:51.806Z,49.50
2018-03-16T06:00:18.693Z,42.63
2018-03-16T06:02:44.821Z,47.37
2018-03-16T06:05:10.950Z,46.00
2018-03-16T06:07:37.812Z,49.40
2018-03-16T06:10:03.952Z,42.20
2018-03-16T06:12:30.108Z,47.53
2018-03-16T06:14:56.241Z,42.57
2018-03-16T06:17:22.377Z,48.10
2018-03-16T06:19:48.545Z,46.63
2018-03-16T06:22:14.672Z,45.03
2018-03-16T06:24:40.810Z,42.57
2018-03-16T06:27:06.936Z,47.70
2018-03-16T06:29:33.079Z,43.87
2018-03-16T06:31:59.229Z,36.13
2018-03-16T06:34:25.345Z,41.83
2018-03-16T06:36:51.472Z,47.07
2018-03-16T06:39:18.393Z,47.43
2018-03-16T06:41:44.498Z,42.30
2018-03-16T06:44:10.623Z,40.07
2018-03-16T06:46:36.752Z,45.40
2018-03-16T06:49:02.876Z,25.27
2018-03-16T06:51:29.748Z,34.43
2018-03-16T06:53:55.884Z,41.37
2018-03-16T06:56:22.013Z,46.73
2018-03-16T06:58:48.139Z,39.30
2018-03-16T07:01:15.001Z,40.97
2018-03-16T07:03:56.202Z,38.90
2018-03-16T07:12:26.944Z,40.40
2018-03-16T07:17:54.769Z,42.87
2018-03-16T07:20:48.098Z,35.40
2018-03-16T07:29:31.009Z,28.40
2018-03-16T07:32:11.086Z,24.20
2018-03-16T07:34:37.216Z,39.80
2018-03-16T07:37:17.290Z,38.20
2018-03-16T07:39:44.470Z,38.70
2018-03-16T07:42:10.610Z,36.83
2018-03-16T07:44:51.269Z,34.80
2018-03-16T07:47:31.845Z,30.47
2018-03-16T07:50:12.621Z,33.67
2018-03-16T07:55:45.470Z,27.30
2018-03-16T07:58:13.664Z,35.73
2018-03-16T08:03:47.347Z,28.53
2018-03-16T08:06:27.559Z,32.47
2018-03-16T08:12:21.776Z,31.10
2018-03-16T08:20:51.110Z,29.37
2018-03-16T08:26:37.166Z,25.13
2018-03-16T08:29:03.275Z,29.37
2018-03-16T08:31:34.340Z,27.63
2018-03-16T08:37:02.278Z,27.40
2018-03-16T08:39:55.797Z,26.13
2018-03-16T08:42:43.502Z,26.87
2018-03-16T08:48:17.083Z,28.33
2018-03-16T08:53:53.802Z,28.57
2018-03-16T08:56:25.631Z,26.73
2018-03-16T08:59:15.955Z,28.67
2018-03-16T09:02:14.606Z,15.50
2018-03-16T09:05:12.693Z,29.63
2018-03-16T09:08:01.413Z,29.73
2018-03-16T09:10:43.085Z,31.13
2018-03-16T09:13:12.022Z,32.17
2018-03-16T09:15:55.949Z,33.00
2018-03-16T09:18:22.090Z,31.73
2018-03-16T09:20:51.022Z,35.00
2018-03-16T09:23:17.150Z,33.80
2018-03-16T09:25:43.296Z,34.47
2018-03-16T09:28:09.419Z,28.70
2018-03-16T09:30:35.537Z,34.67
2018-03-16T09:33:02.380Z,35.50
2018-03-16T09:35:28.493Z,35.73
2018-03-16T09:37:54.618Z,31.40
2018-03-16T09:40:20.734Z,33.07
2018-03-16T09:42:46.858Z,35.47
2018-03-16T09:45:12.974Z,32.80
2018-03-16T09:47:39.851Z,35.30
2018-03-16T09:50:06.713Z,37.43
2018-03-16T09:52:32.853Z,34.97
2018-03-16T09:55:17.621Z,37.27
2018-03-16T09:57:44.476Z,35.30
2018-03-16T10:00:11.333Z,33.83
2018-03-16T10:02:38.229Z,35.47
2018-03-16T10:05:04.425Z,30.80
2018-03-16T10:07:31.301Z,32.23
2018-03-16T10:09:57.433Z,32.27
2018-03-16T10:12:23.562Z,33.33
2018-03-16T10:14:49.697Z,32.10
2018-03-16T10:17:16.822Z,31.20
2018-03-16T10:19:44.433Z,34.90
2018-03-16T10:22:10.570Z,32.67
2018-03-16T10:24:37.441Z,32.70
2018-03-16T10:27:03.562Z,33.47
2018-03-16T10:29:29.689Z,32.87
2018-03-16T10:31:56.573Z,32.37
2018-03-16T10:34:22.704Z,31.33
2018-03-16T10:36:48.855Z,32.47
2018-03-16T10:39:14.981Z,33.27
2018-03-16T10:41:41.113Z,33.50
2018-03-16T10:44:41.542Z,31.63
2018-03-16T10:47:08.417Z,34.10
2018-03-16T10:49:35.294Z,30.20
2018-03-16T10:52:01.441Z,30.87
2018-03-16T10:54:27.577Z,32.47
2018-03-16T10:56:53.706Z,24.70
2018-03-16T10:59:19.830Z,33.80
2018-03-16T11:01:52.077Z,31.90
2018-03-16T11:04:18.218Z,30.63
2018-03-16T11:06:46.336Z,33.27
2018-03-16T11:09:12.464Z,31.13
2018-03-16T11:11:39.346Z,29.80
2018-03-16T11:14:05.490Z,33.87
2018-03-16T11:16:31.616Z,30.87
2018-03-16T11:18:57.749Z,32.40
2018-03-16T11:21:23.890Z,27.80
2018-03-16T11:23:50.029Z,24.77
2018-03-16T11:26:19.462Z,31.67
2018-03-16T11:28:45.586Z,30.27
2018-03-16T11:31:11.726Z,33.50
2018-03-16T11:33:37.881Z,27.93
2018-03-16T11:36:04.000Z,32.43
2018-03-16T11:38:30.132Z,34.13
2018-03-16T11:40:57.009Z,29.23
2018-03-16T11:43:23.129Z,36.80
2018-03-16T11:45:49.260Z,34.40
2018-03-16T11:48:16.138Z,33.30
2018-03-16T11:50:42.265Z,30.73
2018-03-16T11:53:08.405Z,28.23
2018-03-16T11:55:34.529Z,33.73
2018-03-16T11:58:01.397Z,33.97
2018-03-16T12:00:27.525Z,31.93
2018-03-16T12:02:54.385Z,32.77
2018-03-16T12:05:21.285Z,34.00
2018-03-16T12:07:47.396Z,32.80
2018-03-16T12:10:13.521Z,31.13
2018-03-16T12:12:39.640Z,32.40
2018-03-16T12:15:06.510Z,20.43
2018-03-16T12:17:32.663Z,33.07
2018-03-16T12:19:58.805Z,28.37
2018-03-16T12:22:24.946Z,27.90
2018-03-16T12:24:51.074Z,23.03
2018-03-16T12:27:17.233Z,17.70
2018-03-16T12:29:43.378Z,32.47
2018-03-16T12:32:09.517Z,26.00
2018-03-16T12:34:35.641Z,30.97
2018-03-16T12:37:01.773Z,31.30
2018-03-16T12:39:27.922Z,27.07
2018-03-16T12:41:54.054Z,27.93
2018-03-16T12:44:20.181Z,21.33
2018-03-16T12:46:46.312Z,26.83
2018-03-16T12:49:12.457Z,29.57
2018-03-16T12:51:42.226Z,29.57
2018-03-16T12:54:04.742Z,25.30
2018-03-16T12:56:30.849Z,28.67
2018-03-16T12:58:57.709Z,26.90
2018-03-16T13:01:24.566Z,28.47
2018-03-16T13:03:51.423Z,27.27
2018-03-16T13:06:18.281Z,27.87
2018-03-16T13:08:45.145Z,27.67
2018-03-16T13:11:11.273Z,27.07
2018-03-16T13:13:38.129Z,27.73
2018-03-16T13:16:04.989Z,28.90
2018-03-16T13:18:31.837Z,28.77
2018-03-16T13:20:57.949Z,26.23
2018-03-16T13:23:24.087Z,27.13
2018-03-16T13:25:50.214Z,27.27
2018-03-16T13:28:16.337Z,25.73
2018-03-16T13:30:42.453Z,26.60
2018-03-16T13:33:08.579Z,27.00
2018-03-16T13:35:38.300Z,25.73
2018-03-16T13:38:05.144Z,25.37
2018-03-16T13:40:31.998Z,26.53
2018-03-16T13:42:58.884Z,25.87
2018-03-16T13:45:24.988Z,24.53
2018-03-16T13:47:51.849Z,29.57
2018-03-16T13:50:18.718Z,27.40
2018-03-16T13:52:44.871Z,23.57
2018-03-16T13:55:11.008Z,20.83
2018-03-16T13:57:37.128Z,29.00
2018-03-16T14:00:03.990Z,30.17
2018-03-16T14:02:30.126Z,29.20
2018-03-16T14:04:56.274Z,28.03
2018-03-16T14:07:22.397Z,30.27
2018-03-16T14:09:49.270Z,25.93
2018-03-16T14:12:15.397Z,27.43
2018-03-16T14:14:41.565Z,27.80
2018-03-16T14:17:07.687Z,27.10
2018-03-16T14:19:33.823Z,26.43
2018-03-16T14:21:59.944Z,28.23
2018-03-16T14:24:26.810Z,27.90
2018-03-16T14:26:52.932Z,26.20
2018-03-16T14:29:19.802Z,25.57
2018-03-16T14:31:45.928Z,28.47
2018-03-16T14:34:12.851Z,30.70
2018-03-16T14:36:38.953Z,28.97
2018-03-16T14:39:05.069Z,30.60
2018-03-16T14:41:31.940Z,28.60
2018-03-16T14:43:58.066Z,28.63
2018-03-16T14:46:24.222Z,30.50
2018-03-16T14:48:50.352Z,30.27
2018-03-16T14:51:16.480Z,30.03
2018-03-16T14:53:43.342Z,27.83
2018-03-16T14:56:09.456Z,28.17
2018-03-16T14:58:36.317Z,29.13
2018-03-16T15:01:03.176Z,27.47
2018-03-16T15:03:30.042Z,28.10
2018-03-16T15:05:56.219Z,26.97
2018-03-16T15:08:22.337Z,26.67
2018-03-16T15:10:48.425Z,24.80
2018-03-16T15:13:14.545Z,22.57
2018-03-16T15:15:40.663Z,26.53
2018-03-16T15:18:06.777Z,25.57
2018-03-16T15:20:32.882Z,23.57
2018-03-16T15:22:59.004Z,23.70
2018-03-16T15:25:25.102Z,22.00
2018-03-16T15:27:51.178Z,24.03
2018-03-16T15:30:17.256Z,24.10
2018-03-16T15:32:44.077Z,22.83
2018-03-16T15:35:10.155Z,22.17
2018-03-16T15:37:36.223Z,24.20
2018-03-16T15:40:02.306Z,24.57
2018-03-16T15:42:29.132Z,20.87
2018-03-16T15:44:55.207Z,25.17
2018-03-16T15:47:22.024Z,21.47
2018-03-16T15:49:48.098Z,23.90
2018-03-16T15:52:14.936Z,21.90
2018-03-16T15:54:41.018Z,22.27
2018-03-16T15:57:07.088Z,21.87
2018-03-16T15:59:33.159Z,23.03
2018-03-16T16:01:59.984Z,23.77
2018-03-16T16:04:26.063Z,23.90
2018-03-16T16:06:52.138Z,23.73
2018-03-16T16:09:18.215Z,24.67
2018-03-16T16:11:44.314Z,24.70
2018-03-16T16:14:10.396Z,24.23
2018-03-16T16:16:36.491Z,23.70
2018-03-16T16:19:02.584Z,24.13
2018-03-16T16:21:29.424Z,24.57
2018-03-16T16:23:55.528Z,24.10
2018-03-16T16:26:28.311Z,25.13
2018-03-16T16:28:54.410Z,21.63
2018-03-16T16:31:20.506Z,23.97
2018-03-16T16:33:46.595Z,23.37
2018-03-16T16:36:12.680Z,26.83
2018-03-16T16:38:38.781Z,25.00
2018-03-16T16:41:04.855Z,23.63
2018-03-16T16:43:30.943Z,25.40
2018-03-16T16:45:57.771Z,21.67
2018-03-16T16:48:24.615Z,23.43
2018-03-16T16:50:50.703Z,24.97
2018-03-16T16:53:16.813Z,23.87
2018-03-16T16:55:43.639Z,22.47
2018-03-16T16:58:09.741Z,24.23
2018-03-16T17:00:35.831Z,24.87
2018-03-16T17:03:01.915Z,24.50
2018-03-16T17:05:28.023Z,21.87
2018-03-16T17:07:54.848Z,22.80
2018-03-16T17:10:20.939Z,22.93
2018-03-16T17:12:47.036Z,21.67
2018-03-16T17:15:13.123Z,21.60
2018-03-16T17:17:39.216Z,20.30
2018-03-16T17:20:05.303Z,22.27
2018-03-16T17:22:31.383Z,22.83
2018-03-16T17:25:18.230Z,22.03
2018-03-16T17:27:49.599Z,21.13
2018-03-16T17:30:45.796Z,17.73
2018-03-16T17:33:11.911Z,21.50
2018-03-16T17:35:37.995Z,22.87
2018-03-16T17:38:04.081Z,21.67
2018-03-16T17:40:30.163Z,19.87
2018-03-16T17:42:56.259Z,19.90
2018-03-16T17:45:22.356Z,22.80
2018-03-16T17:47:49.209Z,23.47
2018-03-16T17:50:16.037Z,21.10
2018-03-16T17:52:42.132Z,21.20
2018-03-16T17:55:08.207Z,23.20
2018-03-16T17:57:34.295Z,21.93
2018-03-16T18:00:00.380Z,21.07
2018-03-16T18:02:26.455Z,21.87
2018-03-16T18:04:53.279Z,23.10
2018-03-16T18:07:19.347Z,20.57
2018-03-16T18:09:46.163Z,21.27
2018-03-16T18:12:12.236Z,20.93
2018-03-16T18:14:39.118Z,20.37
2018-03-16T18:17:05.150Z,16.77
2018-03-16T18:19:31.228Z,20.50
2018-03-16T18:21:57.307Z,20.30
2018-03-16T18:24:24.143Z,21.27
2018-03-16T18:26:50.217Z,20.03
2018-03-16T18:29:16.293Z,20.63
2018-03-16T18:31:42.362Z,21.10
2018-03-16T18:34:09.225Z,20.83
2018-03-16T18:36:35.259Z,15.30
2018-03-16T18:39:02.072Z,20.63
2018-03-16T18:41:28.172Z,21.40
2018-03-16T18:43:54.246Z,20.10
2018-03-16T18:46:20.314Z,19.03
2018-03-16T18:48:46.395Z,20.80
2018-03-16T18:51:12.468Z,20.60
2018-03-16T18:53:38.586Z,19.07
2018-03-16T18:56:04.674Z,20.20
2018-03-16T18:58:31.507Z,20.50
2018-03-16T19:00:57.583Z,12.97
2018-03-16T19:03:23.684Z,21.03
2018-03-16T19:05:51.268Z,20.97
2018-03-16T19:08:17.371Z,20.47
2018-03-16T19:10:43.452Z,22.73
2018-03-16T19:13:10.295Z,20.50
2018-03-16T19:15:36.387Z,20.27
2018-03-16T19:18:02.463Z,17.23
2018-03-16T19:20:28.555Z,18.40
2018-03-16T19:22:54.640Z,19.17
2018-03-16T19:25:20.779Z,19.53
2018-03-16T19:27:46.829Z,19.17
2018-03-16T19:30:12.920Z,18.60
2018-03-16T19:32:39.004Z,18.23
2018-03-16T19:35:05.096Z,16.53
2018-03-16T19:37:31.174Z,18.47
2018-03-16T19:39:57.251Z,19.00
2018-03-16T19:42:23.340Z,18.53
2018-03-16T19:44:49.427Z,17.53
2018-03-16T19:47:15.510Z,18.63
2018-03-16T19:49:41.621Z,18.87
2018-03-16T19:52:07.707Z,19.30
2018-03-16T19:54:34.556Z,19.50
2018-03-16T19:57:00.631Z,20.47
2018-03-16T19:59:26.715Z,20.37
2018-03-16T20:01:52.796Z,20.27
2018-03-16T20:04:18.858Z,21.20
2018-03-16T20:06:44.943Z,19.87
2018-03-16T20:09:22.071Z,19.27
2018-03-16T20:11:48.151Z,19.83
2018-03-16T20:14:14.304Z,18.57
2018-03-16T20:16:40.379Z,20.10
2018-03-16T20:19:06.453Z,20.03
2018-03-16T20:21:32.527Z,20.97
2018-03-16T20:23:58.602Z,20.90
2018-03-16T20:26:24.676Z,21.17
2018-03-16T20:28:50.746Z,23.33
2018-03-16T20:31:17.567Z,22.03
2018-03-16T20:33:43.643Z,20.50
2018-03-16T20:36:10.462Z,20.57
2018-03-16T20:38:36.530Z,20.33
2018-03-16T20:41:03.331Z,21.97
2018-03-16T20:43:29.411Z,22.07
2018-03-16T20:45:56.236Z,19.83
2018-03-16T20:48:22.336Z,21.00
2018-03-16T20:50:48.407Z,18.40
2018-03-16T20:53:23.023Z,19.30
2018-03-16T20:55:49.100Z,22.90
2018-03-16T20:58:15.175Z,20.60
2018-03-16T21:00:41.987Z,18.23
2018-03-16T21:03:08.055Z,16.60
2018-03-16T21:05:34.861Z,21.47
2018-03-16T21:08:00.939Z,19.20
2018-03-16T21:10:27.011Z,20.40
2018-03-16T21:12:53.080Z,16.77
2018-03-16T21:15:19.148Z,19.47
2018-03-16T21:17:45.203Z,17.53
2018-03-16T21:20:12.046Z,17.47
2018-03-16T21:22:38.111Z,16.63
2018-03-16T21:28:28.386Z,16.57
2018-03-16T21:30:54.476Z,19.13
2018-03-16T21:33:21.296Z,17.63
2018-03-16T21:35:47.388Z,17.67
2018-03-16T21:38:13.463Z,18.20
2018-03-16T21:40:39.527Z,18.70
2018-03-16T21:43:06.347Z,19.90
2018-03-16T21:45:32.427Z,16.57
2018-03-16T21:47:59.254Z,17.83
2018-03-16T21:50:25.323Z,18.47
2018-03-16T21:52:52.163Z,18.50
2018-03-16T21:55:18.255Z,14.37
2018-03-16T21:57:44.363Z,17.10
2018-03-16T22:00:14.056Z,17.27
2018-03-16T22:02:45.560Z,17.63
2018-03-16T22:08:16.842Z,15.63
2018-03-16T22:10:42.932Z,17.57
2018-03-16T22:13:09.015Z,15.67
2018-03-16T22:21:49.643Z,17.77
2018-03-16T22:24:26.692Z,15.20
2018-03-16T22:27:17.975Z,8.33
2018-03-16T22:30:13.973Z,18.30
2018-03-16T22:32:50.837Z,15.70
2018-03-16T22:35:22.475Z,15.53
2018-03-16T22:37:48.555Z,16.20
2018-03-16T22:40:36.574Z,16.73
2018-03-16T22:55:05.403Z,13.17
2018-03-16T23:00:51.768Z,15.07
2018-03-16T23:03:29.299Z,13.07
2018-03-16T23:06:02.616Z,15.57
2018-03-16T23:08:30.759Z,13.60
2018-03-16T23:10:59.647Z,12.73
2018-03-16T23:16:33.976Z,12.23
2018-03-16T23:19:00.166Z,12.20
2018-03-16T23:24:31.879Z,12.30
2018-03-16T23:33:10.615Z,12.07
2018-03-16T23:35:51.335Z,10.97
2018-03-16T23:41:48.929Z,12.73
2018-03-16T23:47:20.563Z,11.60
